Skip Navigation Links
NOAA logo - Click to go to the NOAA homepage
NOAA's National Weather Service
Alaska Aviation Weather Unit
  NWS logo - Click to go to the NWS homepage
Left Navbar Graphic     15 AKDT = 23 GMT

   
NOAA is celebrating 200 years of science, service, and stewardship. Visit the NOAA 200th celebration Web site to learn more.
USA.gov is the U.S. Government's official Web portal to all Federal, state and local government Web resources and services.
Facebook
NWS on Facebook

Important Change Regarding the AAWU Web Presence

 

Over the last several months, the AAWU has been working to navigate its webpages to a nationally supported server. Security, as well as other needs, have necessitated the change.  We have been given an extension for the site changeover while we diligently work at addressing feedback received. As of July 14, 2017, aawu.arh.noaa.gov will be discontinued. The new AAWU web address is weather.gov/aawu. It is now live and will run in-parallel with the old site until it is discontinued on July 14, 2017. Please continue to send any feedback or questions regarding the new webpages to nws.ar.aawu.webauthors@noaa.gov.  Thank you for your patience during this time of transition.
AAWU Home :: Display TAF Add Bookmark
TAF PACV 192320Z 2000/2024  VRB04KT P6SM FEW030=

7068
FTAK31 PANC 192320
TAFAHO
TAF
METAR PACV 191753Z 00000KT 10SM FEW080 M03/M04 A2901 RMK AO2 SLP825
     I6000 T10331044 11028 21061 51003=

METAR PACV 191853Z 00000KT 10SM FEW090 00/M02 A2902 RMK AO2 SLP828
     T00001017=

METAR PACV 191953Z 13003KT 10SM FEW080 03/M05 A2903 RMK AO2 SLP831
     T00281050=

METAR PACV 192053Z 20003KT 10SM CLR 03/M07 A2903 RMK AO2 SLP831
     T00331067 51007=

METAR PACV 192153Z VRB03KT 10SM CLR 04/M07 A2904 RMK AO2 SLP833
     T00441072=

METAR PACV 192253Z 00000KT 10SM OVC032 05/M06 A2904 RMK AO2 SLP832
     T00501061=

SPECI PACV 192321Z 00000KT 10SM OVC029 05/M07 A2903 RMK AO2
     T00501067=

SPECI PACV 192325Z 20003KT 10SM CLR 05/M07 A2903 RMK AO2 T00501067=


NOAA's National Weather Service
Alaska Aviation Weather Unit
6930 Sand Lake Road
Anchorage, AK 99502-1845
Disclaimer
Credits
Glossary
Privacy Policy
About Us
Career Opportunities
Contact AAWU Internet Services Site last modified: April, 17th 2012